createdAt,value
2023-03-22T00:00:19.451Z,10.90
2023-03-22T00:03:07.618Z,9.00
2023-03-22T00:05:35.952Z,7.70
2023-03-22T00:08:07.097Z,8.90
2023-03-22T00:10:40.872Z,8.00
2023-03-22T00:13:11.562Z,8.30
2023-03-22T00:16:02.784Z,8.60
2023-03-22T00:18:33.791Z,9.40
2023-03-22T00:21:01.967Z,8.70
2023-03-22T00:23:33.006Z,9.30
2023-03-22T00:26:24.634Z,7.60
2023-03-22T00:28:55.683Z,5.90
2023-03-22T00:31:26.763Z,6.50
2023-03-22T00:33:54.995Z,7.20
2023-03-22T00:36:23.173Z,7.10
2023-03-22T00:38:55.129Z,6.80
2023-03-22T00:41:23.840Z,6.30
2023-03-22T00:43:52.414Z,7.30
2023-03-22T00:46:31.449Z,7.00
2023-03-22T00:48:59.910Z,6.80
2023-03-22T00:51:27.939Z,7.20
2023-03-22T00:53:57.003Z,6.60
2023-03-22T00:56:28.798Z,6.50
2023-03-22T00:59:10.327Z,5.30
2023-03-22T01:01:39.119Z,4.40
2023-03-22T01:04:07.399Z,4.90
2023-03-22T01:06:36.178Z,6.30
2023-03-22T01:09:05.114Z,5.30
2023-03-22T01:11:33.255Z,6.60
2023-03-22T01:14:01.724Z,8.50
2023-03-22T01:16:30.659Z,7.60
2023-03-22T01:18:58.894Z,7.60
2023-03-22T01:21:29.848Z,9.20
2023-03-22T01:23:58.005Z,8.90
2023-03-22T01:26:26.392Z,8.10
2023-03-22T01:28:54.666Z,7.20
2023-03-22T01:31:22.849Z,6.00
2023-03-22T01:33:50.920Z,5.90
2023-03-22T01:36:19.449Z,6.10
2023-03-22T01:38:47.776Z,6.70
2023-03-22T01:41:17.497Z,6.80
2023-03-22T01:43:46.013Z,6.70
2023-03-22T01:46:14.269Z,5.80
2023-03-22T01:48:46.338Z,4.40
2023-03-22T01:51:25.453Z,4.80
2023-03-22T01:54:17.092Z,4.90
2023-03-22T01:56:46.075Z,5.30
2023-03-22T01:59:20.978Z,6.40
2023-03-22T02:02:20.400Z,7.80
2023-03-22T02:04:58.205Z,9.20
2023-03-22T02:07:33.638Z,8.90
2023-03-22T02:10:02.435Z,8.10
2023-03-22T02:13:01.222Z,7.50
2023-03-22T02:15:47.302Z,5.40
2023-03-22T02:18:44.678Z,6.00
2023-03-22T02:21:51.620Z,6.40
2023-03-22T02:24:51.036Z,5.70
2023-03-22T02:30:24.411Z,4.10
2023-03-22T02:33:03.552Z,4.90
2023-03-22T02:35:47.265Z,5.10
2023-03-22T02:39:01.503Z,4.70
2023-03-22T02:41:46.333Z,4.50
2023-03-22T02:44:41.772Z,3.80
2023-03-22T02:47:24.193Z,3.60
2023-03-22T02:50:00.330Z,4.00
2023-03-22T02:53:06.216Z,3.60
2023-03-22T02:55:55.951Z,3.70
2023-03-22T02:58:45.993Z,4.10
2023-03-22T03:01:26.273Z,3.50
2023-03-22T03:04:00.155Z,3.60
2023-03-22T03:06:33.316Z,3.50
2023-03-22T03:09:05.021Z,4.20
2023-03-22T03:11:34.080Z,4.00
2023-03-22T03:16:35.263Z,4.00
2023-03-22T03:19:14.786Z,3.40
2023-03-22T03:21:51.051Z,4.10
2023-03-22T03:24:25.979Z,4.60
2023-03-22T03:26:57.130Z,4.80
2023-03-22T03:29:47.615Z,4.90
2023-03-22T03:32:27.256Z,4.30
2023-03-22T03:35:03.740Z,3.90
2023-03-22T03:37:43.980Z,3.90
2023-03-22T03:40:18.960Z,3.60
2023-03-22T03:42:52.802Z,3.50
2023-03-22T03:45:22.261Z,3.70
2023-03-22T03:47:57.249Z,3.80
2023-03-22T03:50:27.178Z,3.60
2023-03-22T03:52:56.180Z,3.50
2023-03-22T03:55:26.594Z,4.00
2023-03-22T03:57:54.792Z,4.60
2023-03-22T04:00:23.245Z,3.80
2023-03-22T04:03:14.775Z,3.70
2023-03-22T04:05:54.826Z,4.40
2023-03-22T04:08:33.652Z,6.40
2023-03-22T04:11:02.149Z,6.70
2023-03-22T04:13:30.923Z,4.90
2023-03-22T04:16:02.275Z,5.10
2023-03-22T04:18:33.210Z,5.20
2023-03-22T04:21:22.913Z,4.60
2023-03-22T04:24:02.527Z,4.70
2023-03-22T04:26:34.190Z,5.00
2023-03-22T04:29:16.622Z,4.70
2023-03-22T04:31:48.933Z,5.10
2023-03-22T04:34:37.332Z,5.50
2023-03-22T04:37:11.392Z,5.10
2023-03-22T04:40:00.940Z,5.20
2023-03-22T04:42:47.004Z,6.60
2023-03-22T04:45:24.944Z,5.70
2023-03-22T04:47:56.579Z,5.80
2023-03-22T04:50:24.938Z,5.20
2023-03-22T04:52:55.465Z,4.70
2023-03-22T04:55:23.960Z,5.60
2023-03-22T04:57:54.921Z,5.30
2023-03-22T05:00:24.286Z,5.10
2023-03-22T05:02:53.288Z,5.30
2023-03-22T05:05:28.522Z,5.60
2023-03-22T05:07:57.117Z,5.70
2023-03-22T05:10:25.561Z,5.20
2023-03-22T05:12:54.825Z,5.10
2023-03-22T05:15:25.733Z,5.20
2023-03-22T05:17:55.905Z,5.40
2023-03-22T05:20:25.150Z,5.80
2023-03-22T05:25:45.369Z,5.30
2023-03-22T05:28:19.746Z,5.50
2023-03-22T05:31:08.395Z,5.50
2023-03-22T05:33:58.156Z,6.70
2023-03-22T05:36:29.887Z,6.60
2023-03-22T05:39:22.834Z,7.30
2023-03-22T05:41:51.921Z,7.50
2023-03-22T05:44:20.096Z,7.10
2023-03-22T05:46:59.007Z,7.30
2023-03-22T05:49:43.399Z,5.90
2023-03-22T05:52:12.474Z,6.30
2023-03-22T05:55:07.480Z,8.00
2023-03-22T05:57:36.276Z,6.80
2023-03-22T06:00:13.574Z,6.80
2023-03-22T06:02:45.249Z,7.40
2023-03-22T06:05:16.055Z,8.20
2023-03-22T06:07:45.251Z,8.80
2023-03-22T06:10:18.343Z,10.00
2023-03-22T06:12:46.746Z,9.00
2023-03-22T06:15:22.585Z,9.80
2023-03-22T06:18:02.827Z,10.60
2023-03-22T06:20:35.410Z,10.40
2023-03-22T06:23:08.930Z,11.30
2023-03-22T06:25:37.454Z,10.30
2023-03-22T06:28:08.518Z,9.60
2023-03-22T06:30:38.125Z,8.00
2023-03-22T06:33:19.993Z,7.70
2023-03-22T06:35:51.987Z,8.30
2023-03-22T06:38:28.565Z,7.90
2023-03-22T06:40:56.843Z,9.40
2023-03-22T06:43:24.951Z,7.90
2023-03-22T06:45:57.486Z,8.20
2023-03-22T06:48:27.899Z,7.50
2023-03-22T06:51:04.074Z,7.30
2023-03-22T06:53:35.831Z,8.10
2023-03-22T06:56:05.219Z,7.20
2023-03-22T06:58:39.759Z,7.50
2023-03-22T07:01:07.983Z,8.50
2023-03-22T07:03:36.836Z,8.50
2023-03-22T07:06:09.623Z,7.90
2023-03-22T07:08:39.936Z,8.40
2023-03-22T07:11:08.959Z,7.80
2023-03-22T07:13:37.299Z,7.20
2023-03-22T07:16:10.441Z,7.90
2023-03-22T07:18:45.851Z,8.60
2023-03-22T07:21:15.587Z,9.70
2023-03-22T07:23:45.364Z,10.60
2023-03-22T07:26:15.925Z,9.70
2023-03-22T07:28:46.240Z,10.50
2023-03-22T07:31:16.194Z,9.80
2023-03-22T07:34:05.468Z,10.30
2023-03-22T07:36:40.491Z,9.80
2023-03-22T07:39:10.990Z,11.70
2023-03-22T07:41:42.525Z,10.10
2023-03-22T07:44:26.272Z,12.30
2023-03-22T07:47:22.183Z,13.90
2023-03-22T07:50:21.694Z,13.70
2023-03-22T07:52:54.481Z,11.20
2023-03-22T07:55:22.760Z,10.80
2023-03-22T08:00:20.243Z,10.60
2023-03-22T08:02:54.568Z,8.20
2023-03-22T08:05:43.628Z,8.30
2023-03-22T08:08:14.258Z,9.10
2023-03-22T08:10:42.846Z,7.90
2023-03-22T08:13:11.228Z,6.60
2023-03-22T08:15:39.764Z,6.00
2023-03-22T08:18:08.906Z,6.60
2023-03-22T08:20:41.349Z,7.10
2023-03-22T08:23:16.879Z,6.20
2023-03-22T08:26:03.730Z,6.50
2023-03-22T08:28:33.988Z,6.50
2023-03-22T08:31:15.306Z,6.70
2023-03-22T08:33:45.379Z,5.40
2023-03-22T08:36:23.072Z,5.90
2023-03-22T08:38:58.151Z,6.20
2023-03-22T08:41:35.690Z,5.80
2023-03-22T08:44:04.129Z,5.40
2023-03-22T08:46:33.264Z,5.10
2023-03-22T08:49:03.405Z,4.90
2023-03-22T08:51:51.929Z,5.20
2023-03-22T08:54:41.306Z,5.20
2023-03-22T08:57:30.772Z,6.40
2023-03-22T09:00:22.316Z,6.40
2023-03-22T09:03:16.036Z,5.50
2023-03-22T09:05:44.765Z,5.90
2023-03-22T09:10:51.988Z,5.20
2023-03-22T09:13:21.816Z,5.90
2023-03-22T09:15:55.286Z,5.40
2023-03-22T09:18:26.623Z,4.80
2023-03-22T09:20:55.519Z,5.50
2023-03-22T09:23:27.370Z,5.60
2023-03-22T09:28:25.462Z,4.20
2023-03-22T09:30:54.491Z,4.10
2023-03-22T09:33:23.665Z,3.60
2023-03-22T09:35:54.722Z,3.60
2023-03-22T09:38:25.082Z,4.10
2023-03-22T09:41:02.210Z,3.90
2023-03-22T09:43:43.919Z,4.00
2023-03-22T09:46:18.000Z,4.00
2023-03-22T09:48:48.363Z,3.80
2023-03-22T09:51:30.027Z,4.30
2023-03-22T09:53:58.313Z,4.20
2023-03-22T09:56:33.028Z,4.10
2023-03-22T09:59:24.049Z,3.80
2023-03-22T10:01:55.745Z,4.30
2023-03-22T10:04:36.116Z,3.80
2023-03-22T10:07:11.772Z,4.50
2023-03-22T10:10:03.645Z,4.00
2023-03-22T10:12:42.668Z,3.70
2023-03-22T10:17:47.119Z,3.60
2023-03-22T10:20:30.746Z,3.60
2023-03-22T10:23:02.008Z,3.70
2023-03-22T10:25:40.413Z,3.70
2023-03-22T10:28:44.232Z,3.90
2023-03-22T10:31:21.341Z,3.70
2023-03-22T10:34:00.637Z,3.20
2023-03-22T10:36:34.895Z,3.40
2023-03-22T10:39:29.241Z,3.60
2023-03-22T10:42:01.752Z,3.40
2023-03-22T10:44:37.028Z,3.60
2023-03-22T10:47:08.732Z,3.60
2023-03-22T10:49:51.648Z,3.50
2023-03-22T10:52:47.357Z,4.00
2023-03-22T10:55:17.184Z,4.20
2023-03-22T10:57:56.685Z,3.50
2023-03-22T11:00:28.889Z,3.90
2023-03-22T11:03:01.099Z,4.00
2023-03-22T11:05:30.712Z,3.90
2023-03-22T11:08:02.541Z,4.10
2023-03-22T11:10:35.500Z,4.00
2023-03-22T11:13:10.129Z,4.00
2023-03-22T11:15:50.252Z,4.30
2023-03-22T11:18:19.788Z,3.80
2023-03-22T11:21:00.787Z,4.30
2023-03-22T11:23:33.989Z,4.50
2023-03-22T11:26:09.737Z,4.20
2023-03-22T11:28:46.689Z,4.10
2023-03-22T11:31:17.867Z,4.10
2023-03-22T11:33:57.884Z,3.90
2023-03-22T11:36:34.761Z,4.30
2023-03-22T11:39:08.291Z,4.30
2023-03-22T11:41:39.710Z,4.30
2023-03-22T11:44:13.356Z,4.60
2023-03-22T11:46:51.942Z,4.40
2023-03-22T11:49:23.603Z,4.40
2023-03-22T11:51:56.479Z,4.30
2023-03-22T11:54:32.059Z,4.20
2023-03-22T11:57:04.789Z,4.50
2023-03-22T11:59:50.499Z,4.20
2023-03-22T12:02:26.675Z,4.20
2023-03-22T12:05:11.393Z,4.30
2023-03-22T12:07:42.022Z,4.40
2023-03-22T12:10:23.180Z,4.00
2023-03-22T12:13:22.570Z,4.20
2023-03-22T12:16:02.048Z,3.80
2023-03-22T12:21:30.063Z,3.90
2023-03-22T12:24:42.805Z,3.50
2023-03-22T12:27:41.069Z,3.80
2023-03-22T12:30:25.559Z,3.60
2023-03-22T12:33:10.390Z,3.80
2023-03-22T12:35:45.202Z,3.80
2023-03-22T12:38:42.605Z,4.00
2023-03-22T12:41:34.169Z,3.30
2023-03-22T12:44:40.711Z,3.70
2023-03-22T12:47:28.232Z,4.10
2023-03-22T12:50:14.109Z,3.60
2023-03-22T12:52:47.423Z,3.80
2023-03-22T12:55:35.942Z,3.40
2023-03-22T12:58:09.225Z,3.70
2023-03-22T13:00:42.977Z,3.70
2023-03-22T13:03:18.077Z,3.60
2023-03-22T13:05:50.279Z,3.50
2023-03-22T13:08:22.597Z,3.30
2023-03-22T13:11:05.916Z,4.00
2023-03-22T13:13:42.933Z,3.80
2023-03-22T13:16:16.310Z,3.80
2023-03-22T13:18:45.399Z,3.30
2023-03-22T13:21:22.860Z,3.10
2023-03-22T13:24:06.476Z,3.50
2023-03-22T13:26:51.656Z,3.60
2023-03-22T13:29:25.984Z,3.40
2023-03-22T13:32:01.194Z,3.70
2023-03-22T13:34:45.737Z,3.70
2023-03-22T13:37:46.068Z,3.50
2023-03-22T13:40:29.929Z,3.20
2023-03-22T13:43:23.909Z,3.40
2023-03-22T13:46:04.193Z,3.50
2023-03-22T13:48:48.048Z,3.80
2023-03-22T13:51:25.733Z,3.30
2023-03-22T13:54:18.850Z,3.80
2023-03-22T13:57:01.531Z,3.50
2023-03-22T14:00:03.076Z,3.00
2023-03-22T14:02:42.517Z,3.00
2023-03-22T14:05:12.060Z,3.10
2023-03-22T14:07:46.792Z,3.40
2023-03-22T14:10:37.144Z,3.10
2023-03-22T14:13:15.798Z,3.40
2023-03-22T14:15:51.518Z,3.30
2023-03-22T14:18:30.687Z,3.00
2023-03-22T14:21:03.440Z,2.80
